PAHP Airport Information

Runway Information
Runway 13 Length 3300 ft width 75 ft
Elevation 4 ft Threshold 0 ft Heading 149
Runway 31 Length 3300 ft Width 75 ft
Elevation 4 ft Threshold 0 ft Heading 329
Airport Frequencies
Type AWOS Name AWOS 3 Frequency 135.1 MHZ
Type CTAF Name CTAF Frequency 123 MHZ
Type FSS Name KENAI RDO Frequency 122.4 MHZ
Type MISC Name TWEB Frequency 115.2 MHZ
Airport Navaids
Type VOR-DME Name Hooper Bay Frequency 115200 KHZ
Airport Weather Information & NOTAM
ADDS - METARS form results

(1145 UTC 19 September 2018)
Data provider http://aviationweather.gov/metar/data/
 
METAR text: PAHP 191056Z AUTO 25015KT 10SM BKN015 BKN028 OVC040 11/08 A3025 RMK AO2 RAE47 SLP283 P0000 T01060083
Conditions at: PAHP (HOOPER BAY , AK, US) observed 1056 UTC 19 September 2018
Temperature: 10.6°C (51°F)
Dewpoint: 8.3°C (47°F) [RH = 86%]
Pressure (altimeter): 30.25 inches Hg (1024.5 mb)
[Sea-level pressure: 1028.3 mb]
Winds: from the WSW (250 degrees) at 17 MPH (15 knots; 7.7 m/s)
Visibility: 10 or more miles (16+ km)
Ceiling: 1500 feet AGL
Clouds: broken clouds at 1500 feet AGL
broken clouds at 2800 feet AGL
overcast cloud deck at 4000 feet AGL
Weather: automated observation with no human augmentation;
there may or may not be significant weather present at this time